• Join FlightAware (Why Join?)
  • Login
  • US Flag 
06:07AM EST


 

Airport Tracker/Info


-or-


 

Live Flight TrackerFlight Track Log ✈ EJA929 ✈ 24-Feb-2014 ✈ KIAD - KTEB

Flight Track Log - Related Links

Times and Time Zones

All times are in EST time to prevent confusion due to time zone crossing. See the EJA929 flight status page for this flight to view local times or setup timezone preferences in your user account.

Time Position Orientation Groundspeed Altitude Reporting Facility
EST Latitude Longitude Course Direction KTS MPH feet Rate Location/Type
07:26AM 39.0000 -77.5000 72° East 214 246 4,400  Level Potomac TRACON
07:27AM 39.0667 -77.4833 11° North 256 295 8,300 2,280 Climbing Potomac TRACON
07:28AM 39.1167 -77.4167 46° Northeast 310 357 9,000 360 Climbing Potomac TRACON
07:29AM 39.1667 -77.3333 52° Northeast 308 354 9,100 660 Climbing Potomac TRACON
07:31AM 39.1380 -76.5985 72° East  Level FlightAware Approximate
07:31AM 39.2722 -77.1572 52° Northeast 330 380 11,100  Level Washington Center
07:32AM 39.3258 -77.0350 60° Northeast 354 407 13,100 1,920 Climbing Washington Center
07:33AM 39.3025 -76.8764 101° East 378 435 15,000 1,920 Climbing Washington Center
07:34AM 39.2625 -76.7122 107° East 418 481 17,000 960 Climbing Washington Center
07:35AM 39.2222 -76.5372 106° East 459 528 17,000  Level Washington Center
07:36AM 39.1839 -76.3628 106° East 488 562 17,000 -60 Level Washington Center
07:37AM 39.2142 -76.1675 79° East 489 563 16,900 -60 Descending Washington Center
07:38AM 39.3106 -76.0531 43° Northeast 440 506 16,900  Level Washington Center
07:39AM 39.4172 -75.9542 36° Northeast 442 509 16,900 -120 Level Washington Center
07:41AM 39.6167 -75.7667 36° Northeast 475 547 16,600 -960 Descending Philadelphia TRACON
07:42AM 39.7167 -75.6667 38° Northeast 451 519 14,300 -1,800 Descending Philadelphia TRACON
07:43AM 39.8167 -75.5833 33° Northeast 394 453 12,900 -600 Descending Philadelphia TRACON
07:44AM 39.8833 -75.5167 37° Northeast 347 399 13,100 60 Climbing Philadelphia TRACON
07:45AM 39.9833 -75.4333 33° Northeast 402 463 13,100  Level Philadelphia TRACON
07:46AM 40.0667 -75.3500 37° Northeast 399 459 13,100 -240 Level Philadelphia TRACON
07:47AM 40.1667 -75.2667 32° Northeast 399 459 12,700 -960 Descending Philadelphia TRACON
07:48AM 40.2500 -75.1833 37° Northeast 341 392 11,200 -1,680 Descending Philadelphia TRACON
07:49AM 40.3500 -75.0833 37° Northeast 317 365 8,500 -1,680 Descending New York TRACON
07:50AM 40.4000 -75.0000 52° Northeast 303 349 7,000 -1,500 Descending New York TRACON
07:51AM 40.4500 -74.9333 45° Northeast 281 323 5,700 -1,440 Descending New York TRACON
07:52AM 40.5000 -74.8500 52° Northeast 266 306 4,300 -1,380 Descending New York TRACON
07:53AM 40.5333 -74.7667 62° Northeast 255 293 3,000 -720 Descending New York TRACON
07:54AM 40.5667 -74.7000 57° Northeast 254 292 3,000  Level New York TRACON
07:55AM 40.5833 -74.6167 75° East 253 291 3,000  Level New York TRACON
07:56AM 40.6167 -74.5333 62° Northeast 246 283 3,000 -480 Level New York TRACON
07:57AM 40.6500 -74.4667 57° Northeast 254 292 2,100 -540 Descending New York TRACON
07:58AM 40.6667 -74.3833 75° East 214 246 2,000 -60 Descending New York TRACON
07:59AM 40.7000 -74.3167 57° Northeast 202 232 2,000 -60 Level New York TRACON
08:00AM 40.7167 -74.2667 66° East 187 215 1,900 -300 Descending New York TRACON
08:01AM 40.7500 -74.2167 49° Northeast 179 206 1,500 -240 Descending New York TRACON
08:02AM 40.7833 -74.1667 49° Northeast 187 215 1,500 -60 Level New York TRACON
08:03AM 40.8167 -74.1333 37° Northeast 147 169 1,400 -540 Descending New York TRACON
08:04AM 40.8333 -74.0833 66° East 129 148 500 -900 Descending New York TRACON